Terminal Aerodrome Forecast
Issued by NWS

Home | Current Version | Previous Version | Text Only | Print | Product List | Glossary On
Versions: 1 2 3 4 5 6 7 8 9 10 11 12 13 14 15 16
000
FTAK31 PAJN 232339
TAFAWG
TAF
PAWG 232339Z 2400/2424 31005KT P6SM FEW060 BKN120
     FM240700 VRB03KT P6SM OVC100
     FM241700 VRB06KT P6SM VCSH OVC050
      AMD LTD TO CLD VIS AND WIND 2406/2415=

USA.gov is the U.S. government's official web portal to all federal, state and local government web resources and services.